sensor_id;sensor_type;location;lat;lon;timestamp;P1;durP1;ratioP1;P2;durP2;ratioP2
9328;SDS011;4703;48.748;19.142;2022-10-26T00:01:08;9.10;;;8.20;;
9328;SDS011;4703;48.748;19.142;2022-10-26T00:03:38;9.27;;;8.37;;
9328;SDS011;4703;48.748;19.142;2022-10-26T00:06:08;9.10;;;8.30;;
9328;SDS011;4703;48.748;19.142;2022-10-26T00:08:42;10.20;;;7.63;;
9328;SDS011;4703;48.748;19.142;2022-10-26T00:11:10;9.87;;;8.13;;
9328;SDS011;4703;48.748;19.142;2022-10-26T00:13:38;9.77;;;8.77;;
9328;SDS011;4703;48.748;19.142;2022-10-26T00:16:06;8.73;;;7.83;;
9328;SDS011;4703;48.748;19.142;2022-10-26T00:19:00;8.80;;;7.90;;
9328;SDS011;4703;48.748;19.142;2022-10-26T00:21:26;9.53;;;8.50;;
9328;SDS011;4703;48.748;19.142;2022-10-26T00:23:53;7.87;;;7.10;;
9328;SDS011;4703;48.748;19.142;2022-10-26T00:26:20;9.83;;;8.80;;
9328;SDS011;4703;48.748;19.142;2022-10-26T00:28:47;8.73;;;7.93;;
9328;SDS011;4703;48.748;19.142;2022-10-26T00:31:14;8.13;;;7.17;;
9328;SDS011;4703;48.748;19.142;2022-10-26T00:33:42;8.27;;;7.57;;
9328;SDS011;4703;48.748;19.142;2022-10-26T00:36:09;8.03;;;7.33;;
9328;SDS011;4703;48.748;19.142;2022-10-26T00:38:38;7.90;;;7.20;;
9328;SDS011;4703;48.748;19.142;2022-10-26T00:41:13;8.37;;;7.60;;
9328;SDS011;4703;48.748;19.142;2022-10-26T00:43:41;7.90;;;7.20;;
9328;SDS011;4703;48.748;19.142;2022-10-26T00:46:10;8.90;;;7.30;;
9328;SDS011;4703;48.748;19.142;2022-10-26T00:48:43;9.00;;;7.90;;
9328;SDS011;4703;48.748;19.142;2022-10-26T00:51:49;9.57;;;8.67;;
9328;SDS011;4703;48.748;19.142;2022-10-26T00:54:12;9.67;;;8.33;;
9328;SDS011;4703;48.748;19.142;2022-10-26T00:56:47;8.13;;;7.43;;
9328;SDS011;4703;48.748;19.142;2022-10-26T00:59:16;7.70;;;7.00;;
9328;SDS011;4703;48.748;19.142;2022-10-26T01:01:44;9.10;;;7.87;;
9328;SDS011;4703;48.748;19.142;2022-10-26T01:04:13;10.33;;;8.27;;
9328;SDS011;4703;48.748;19.142;2022-10-26T01:06:41;8.37;;;7.60;;
9328;SDS011;4703;48.748;19.142;2022-10-26T01:09:09;8.93;;;6.83;;
9328;SDS011;4703;48.748;19.142;2022-10-26T01:11:36;10.13;;;8.60;;
9328;SDS011;4703;48.748;19.142;2022-10-26T01:14:04;9.10;;;8.30;;
9328;SDS011;4703;48.748;19.142;2022-10-26T01:16:56;8.20;;;7.50;;
9328;SDS011;4703;48.748;19.142;2022-10-26T01:31:13;9.27;;;8.33;;
9328;SDS011;4703;48.748;19.142;2022-10-26T01:33:51;9.10;;;8.30;;
9328;SDS011;4703;48.748;19.142;2022-10-26T01:36:33;9.23;;;8.43;;
9328;SDS011;4703;48.748;19.142;2022-10-26T01:39:25;9.50;;;8.60;;
9328;SDS011;4703;48.748;19.142;2022-10-26T01:42:02;8.40;;;7.70;;
9328;SDS011;4703;48.748;19.142;2022-10-26T01:44:38;9.80;;;8.97;;
9328;SDS011;4703;48.748;19.142;2022-10-26T01:47:10;8.80;;;7.77;;
9328;SDS011;4703;48.748;19.142;2022-10-26T01:49:55;8.90;;;7.60;;
9328;SDS011;4703;48.748;19.142;2022-10-26T01:52:24;11.33;;;7.87;;
9328;SDS011;4703;48.748;19.142;2022-10-26T01:54:58;9.07;;;8.17;;
9328;SDS011;4703;48.748;19.142;2022-10-26T01:58:52;9.60;;;7.90;;
9328;SDS011;4703;48.748;19.142;2022-10-26T02:03:39;8.83;;;8.00;;
9328;SDS011;4703;48.748;19.142;2022-10-26T02:09:45;9.73;;;8.70;;
9328;SDS011;4703;48.748;19.142;2022-10-26T02:12:59;9.03;;;8.13;;
9328;SDS011;4703;48.748;19.142;2022-10-26T02:15:53;10.80;;;9.40;;
9328;SDS011;4703;48.748;19.142;2022-10-26T02:21:19;9.73;;;8.83;;
9328;SDS011;4703;48.748;19.142;2022-10-26T02:23:55;8.60;;;7.80;;
9328;SDS011;4703;48.748;19.142;2022-10-26T02:26:25;9.20;;;8.40;;
9328;SDS011;4703;48.748;19.142;2022-10-26T02:28:55;9.53;;;8.63;;
9328;SDS011;4703;48.748;19.142;2022-10-26T02:31:26;8.80;;;7.93;;
9328;SDS011;4703;48.748;19.142;2022-10-26T02:33:56;10.27;;;9.37;;
9328;SDS011;4703;48.748;19.142;2022-10-26T02:36:28;9.30;;;8.43;;
9328;SDS011;4703;48.748;19.142;2022-10-26T02:38:58;9.90;;;8.57;;
9328;SDS011;4703;48.748;19.142;2022-10-26T02:41:29;9.50;;;8.67;;
9328;SDS011;4703;48.748;19.142;2022-10-26T02:44:06;11.23;;;10.13;;
9328;SDS011;4703;48.748;19.142;2022-10-26T02:46:40;11.63;;;10.07;;
9328;SDS011;4703;48.748;19.142;2022-10-26T02:49:08;13.90;;;10.47;;
9328;SDS011;4703;48.748;19.142;2022-10-26T02:51:39;10.10;;;9.20;;
9328;SDS011;4703;48.748;19.142;2022-10-26T02:56:59;12.00;;;9.60;;
9328;SDS011;4703;48.748;19.142;2022-10-26T02:59:37;10.57;;;9.43;;
9328;SDS011;4703;48.748;19.142;2022-10-26T03:02:08;9.80;;;8.80;;
9328;SDS011;4703;48.748;19.142;2022-10-26T03:04:36;9.67;;;8.77;;
9328;SDS011;4703;48.748;19.142;2022-10-26T03:07:03;9.70;;;8.70;;
9328;SDS011;4703;48.748;19.142;2022-10-26T03:09:30;9.47;;;8.23;;
9328;SDS011;4703;48.748;19.142;2022-10-26T03:11:57;11.60;;;8.80;;
9328;SDS011;4703;48.748;19.142;2022-10-26T03:14:24;9.73;;;8.70;;
9328;SDS011;4703;48.748;19.142;2022-10-26T03:16:51;11.43;;;9.27;;
9328;SDS011;4703;48.748;19.142;2022-10-26T03:19:18;11.30;;;9.33;;
9328;SDS011;4703;48.748;19.142;2022-10-26T03:21:45;11.63;;;8.77;;
9328;SDS011;4703;48.748;19.142;2022-10-26T03:24:12;10.43;;;8.40;;
9328;SDS011;4703;48.748;19.142;2022-10-26T03:26:38;13.00;;;10.10;;
9328;SDS011;4703;48.748;19.142;2022-10-26T03:29:05;9.93;;;8.40;;
9328;SDS011;4703;48.748;19.142;2022-10-26T03:31:34;10.30;;;9.20;;
9328;SDS011;4703;48.748;19.142;2022-10-26T03:34:01;14.20;;;10.53;;
9328;SDS011;4703;48.748;19.142;2022-10-26T03:36:28;9.63;;;8.60;;
9328;SDS011;4703;48.748;19.142;2022-10-26T03:38:54;11.30;;;10.00;;
9328;SDS011;4703;48.748;19.142;2022-10-26T03:41:21;10.20;;;8.97;;
9328;SDS011;4703;48.748;19.142;2022-10-26T03:43:48;10.57;;;9.40;;
9328;SDS011;4703;48.748;19.142;2022-10-26T03:46:15;13.63;;;9.60;;
9328;SDS011;4703;48.748;19.142;2022-10-26T03:48:42;11.93;;;9.13;;
9328;SDS011;4703;48.748;19.142;2022-10-26T03:51:09;10.10;;;8.93;;
9328;SDS011;4703;48.748;19.142;2022-10-26T03:53:36;10.07;;;8.60;;
9328;SDS011;4703;48.748;19.142;2022-10-26T03:56:03;9.43;;;8.53;;
9328;SDS011;4703;48.748;19.142;2022-10-26T03:58:30;9.23;;;8.13;;
9328;SDS011;4703;48.748;19.142;2022-10-26T04:00:57;11.00;;;9.00;;
9328;SDS011;4703;48.748;19.142;2022-10-26T04:03:24;9.30;;;8.40;;
9328;SDS011;4703;48.748;19.142;2022-10-26T04:05:51;9.80;;;8.60;;
9328;SDS011;4703;48.748;19.142;2022-10-26T04:08:18;11.97;;;8.77;;
9328;SDS011;4703;48.748;19.142;2022-10-26T04:10:45;9.37;;;8.37;;
9328;SDS011;4703;48.748;19.142;2022-10-26T04:13:12;8.70;;;7.80;;
9328;SDS011;4703;48.748;19.142;2022-10-26T04:15:39;8.57;;;7.67;;
9328;SDS011;4703;48.748;19.142;2022-10-26T04:18:07;10.17;;;8.50;;
9328;SDS011;4703;48.748;19.142;2022-10-26T04:20:35;11.33;;;9.53;;
9328;SDS011;4703;48.748;19.142;2022-10-26T04:23:04;8.83;;;7.93;;
9328;SDS011;4703;48.748;19.142;2022-10-26T04:25:32;9.23;;;8.20;;
9328;SDS011;4703;48.748;19.142;2022-10-26T04:27:59;9.03;;;8.00;;
9328;SDS011;4703;48.748;19.142;2022-10-26T04:30:28;10.33;;;7.80;;
9328;SDS011;4703;48.748;19.142;2022-10-26T04:32:56;9.30;;;7.30;;
9328;SDS011;4703;48.748;19.142;2022-10-26T04:35:23;7.43;;;6.67;;
9328;SDS011;4703;48.748;19.142;2022-10-26T04:37:50;7.90;;;7.20;;
9328;SDS011;4703;48.748;19.142;2022-10-26T04:40:17;7.97;;;7.10;;
9328;SDS011;4703;48.748;19.142;2022-10-26T04:42:44;7.13;;;6.43;;
9328;SDS011;4703;48.748;19.142;2022-10-26T04:45:14;8.20;;;6.70;;
9328;SDS011;4703;48.748;19.142;2022-10-26T04:47:42;6.73;;;6.13;;
9328;SDS011;4703;48.748;19.142;2022-10-26T04:50:10;23.40;;;19.50;;
9328;SDS011;4703;48.748;19.142;2022-10-26T04:52:38;36.80;;;28.90;;
9328;SDS011;4703;48.748;19.142;2022-10-26T04:55:06;14.87;;;13.33;;
9328;SDS011;4703;48.748;19.142;2022-10-26T04:57:33;8.00;;;7.20;;
9328;SDS011;4703;48.748;19.142;2022-10-26T05:00:01;7.73;;;7.03;;
9328;SDS011;4703;48.748;19.142;2022-10-26T05:02:29;6.43;;;5.83;;
9328;SDS011;4703;48.748;19.142;2022-10-26T05:04:56;8.13;;;6.37;;
9328;SDS011;4703;48.748;19.142;2022-10-26T05:07:23;6.30;;;5.80;;
9328;SDS011;4703;48.748;19.142;2022-10-26T05:09:51;6.23;;;5.63;;
9328;SDS011;4703;48.748;19.142;2022-10-26T05:12:18;7.40;;;6.40;;
9328;SDS011;4703;48.748;19.142;2022-10-26T05:14:45;8.07;;;7.27;;
9328;SDS011;4703;48.748;19.142;2022-10-26T05:17:12;29.50;;;25.87;;
9328;SDS011;4703;48.748;19.142;2022-10-26T05:19:39;63.50;;;50.33;;
9328;SDS011;4703;48.748;19.142;2022-10-26T05:22:06;20.70;;;17.10;;
9328;SDS011;4703;48.748;19.142;2022-10-26T05:24:33;12.07;;;10.97;;
9328;SDS011;4703;48.748;19.142;2022-10-26T05:27:00;9.63;;;8.73;;
9328;SDS011;4703;48.748;19.142;2022-10-26T05:29:26;9.10;;;7.60;;
9328;SDS011;4703;48.748;19.142;2022-10-26T05:31:53;7.47;;;6.47;;
9328;SDS011;4703;48.748;19.142;2022-10-26T05:34:20;6.40;;;5.73;;
9328;SDS011;4703;48.748;19.142;2022-10-26T05:36:47;6.63;;;6.03;;
9328;SDS011;4703;48.748;19.142;2022-10-26T05:39:14;7.90;;;7.07;;
9328;SDS011;4703;48.748;19.142;2022-10-26T05:41:41;6.50;;;5.90;;
9328;SDS011;4703;48.748;19.142;2022-10-26T05:44:08;7.73;;;7.03;;
9328;SDS011;4703;48.748;19.142;2022-10-26T05:46:34;7.13;;;6.53;;
9328;SDS011;4703;48.748;19.142;2022-10-26T05:49:01;8.03;;;6.53;;
9328;SDS011;4703;48.748;19.142;2022-10-26T05:51:28;7.97;;;7.17;;
9328;SDS011;4703;48.748;19.142;2022-10-26T05:53:58;7.50;;;6.80;;
9328;SDS011;4703;48.748;19.142;2022-10-26T05:56:35;6.73;;;6.13;;
9328;SDS011;4703;48.748;19.142;2022-10-26T05:59:09;7.43;;;6.70;;
9328;SDS011;4703;48.748;19.142;2022-10-26T06:01:43;7.30;;;6.57;;
9328;SDS011;4703;48.748;19.142;2022-10-26T06:06:52;7.57;;;6.70;;
9328;SDS011;4703;48.748;19.142;2022-10-26T06:09:20;5.90;;;5.30;;
9328;SDS011;4703;48.748;19.142;2022-10-26T06:11:47;6.03;;;5.43;;
9328;SDS011;4703;48.748;19.142;2022-10-26T06:14:14;7.27;;;6.17;;
9328;SDS011;4703;48.748;19.142;2022-10-26T06:28:33;6.90;;;5.80;;
9328;SDS011;4703;48.748;19.142;2022-10-26T06:31:32;6.43;;;5.67;;
9328;SDS011;4703;48.748;19.142;2022-10-26T06:33:59;6.23;;;5.03;;
9328;SDS011;4703;48.748;19.142;2022-10-26T06:36:27;6.87;;;6.17;;
9328;SDS011;4703;48.748;19.142;2022-10-26T06:39:04;6.23;;;5.63;;
9328;SDS011;4703;48.748;19.142;2022-10-26T06:41:35;6.40;;;5.90;;
9328;SDS011;4703;48.748;19.142;2022-10-26T06:44:03;6.80;;;5.67;;
9328;SDS011;4703;48.748;19.142;2022-10-26T06:49:18;7.70;;;6.90;;
9328;SDS011;4703;48.748;19.142;2022-10-26T06:52:11;7.90;;;6.43;;
9328;SDS011;4703;48.748;19.142;2022-10-26T06:54:52;6.37;;;5.80;;
9328;SDS011;4703;48.748;19.142;2022-10-26T06:57:21;7.20;;;6.57;;
9328;SDS011;4703;48.748;19.142;2022-10-26T06:59:51;6.30;;;5.70;;
9328;SDS011;4703;48.748;19.142;2022-10-26T07:02:25;5.80;;;5.33;;
9328;SDS011;4703;48.748;19.142;2022-10-26T07:04:52;7.60;;;6.90;;
9328;SDS011;4703;48.748;19.142;2022-10-26T07:07:20;6.73;;;6.13;;
9328;SDS011;4703;48.748;19.142;2022-10-26T07:09:50;6.77;;;6.17;;
9328;SDS011;4703;48.748;19.142;2022-10-26T07:12:18;7.30;;;6.50;;
9328;SDS011;4703;48.748;19.142;2022-10-26T07:14:45;8.73;;;7.20;;
9328;SDS011;4703;48.748;19.142;2022-10-26T07:17:12;10.63;;;9.20;;
9328;SDS011;4703;48.748;19.142;2022-10-26T07:19:39;8.53;;;7.73;;
9328;SDS011;4703;48.748;19.142;2022-10-26T07:22:06;7.50;;;6.40;;
9328;SDS011;4703;48.748;19.142;2022-10-26T07:24:33;10.07;;;9.10;;
9328;SDS011;4703;48.748;19.142;2022-10-26T07:27:00;9.40;;;8.50;;
9328;SDS011;4703;48.748;19.142;2022-10-26T07:29:27;8.37;;;6.80;;
9328;SDS011;4703;48.748;19.142;2022-10-26T07:31:54;7.20;;;6.50;;
9328;SDS011;4703;48.748;19.142;2022-10-26T07:34:21;8.10;;;7.30;;
9328;SDS011;4703;48.748;19.142;2022-10-26T07:36:48;6.20;;;5.70;;
9328;SDS011;4703;48.748;19.142;2022-10-26T07:39:16;6.83;;;6.17;;
9328;SDS011;4703;48.748;19.142;2022-10-26T07:41:43;7.30;;;6.57;;
9328;SDS011;4703;48.748;19.142;2022-10-26T07:44:11;6.10;;;5.30;;
9328;SDS011;4703;48.748;19.142;2022-10-26T07:46:38;5.33;;;4.93;;
9328;SDS011;4703;48.748;19.142;2022-10-26T07:49:05;7.00;;;6.30;;
9328;SDS011;4703;48.748;19.142;2022-10-26T07:51:32;6.70;;;6.17;;
9328;SDS011;4703;48.748;19.142;2022-10-26T07:53:59;7.43;;;6.63;;
9328;SDS011;4703;48.748;19.142;2022-10-26T07:56:26;7.57;;;6.87;;
9328;SDS011;4703;48.748;19.142;2022-10-26T07:58:54;7.73;;;7.03;;
9328;SDS011;4703;48.748;19.142;2022-10-26T08:01:21;7.87;;;6.83;;
9328;SDS011;4703;48.748;19.142;2022-10-26T08:03:52;7.20;;;6.37;;
9328;SDS011;4703;48.748;19.142;2022-10-26T08:06:20;6.60;;;6.00;;
9328;SDS011;4703;48.748;19.142;2022-10-26T08:08:48;5.93;;;5.33;;
9328;SDS011;4703;48.748;19.142;2022-10-26T08:11:15;7.03;;;6.37;;
9328;SDS011;4703;48.748;19.142;2022-10-26T08:13:42;6.50;;;6.00;;
9328;SDS011;4703;48.748;19.142;2022-10-26T08:16:09;6.27;;;5.67;;
9328;SDS011;4703;48.748;19.142;2022-10-26T08:18:37;7.20;;;6.60;;
9328;SDS011;4703;48.748;19.142;2022-10-26T08:21:05;6.47;;;5.37;;
9328;SDS011;4703;48.748;19.142;2022-10-26T08:23:38;6.50;;;5.90;;
9328;SDS011;4703;48.748;19.142;2022-10-26T08:26:06;6.40;;;5.80;;
9328;SDS011;4703;48.748;19.142;2022-10-26T08:43:58;6.00;;;5.20;;
9328;SDS011;4703;48.748;19.142;2022-10-26T08:46:41;6.33;;;5.80;;
9328;SDS011;4703;48.748;19.142;2022-10-26T08:49:21;6.33;;;5.83;;
9328;SDS011;4703;48.748;19.142;2022-10-26T08:52:12;5.67;;;5.17;;
9328;SDS011;4703;48.748;19.142;2022-10-26T08:54:47;6.13;;;5.63;;
9328;SDS011;4703;48.748;19.142;2022-10-26T08:57:26;6.57;;;6.07;;
9328;SDS011;4703;48.748;19.142;2022-10-26T09:00:01;6.63;;;5.93;;
9328;SDS011;4703;48.748;19.142;2022-10-26T09:02:37;7.10;;;5.43;;
9328;SDS011;4703;48.748;19.142;2022-10-26T09:05:07;6.37;;;5.30;;
9328;SDS011;4703;48.748;19.142;2022-10-26T09:13:17;5.93;;;4.77;;
9328;SDS011;4703;48.748;19.142;2022-10-26T09:16:08;5.57;;;5.07;;
9328;SDS011;4703;48.748;19.142;2022-10-26T09:18:59;5.20;;;4.80;;
9328;SDS011;4703;48.748;19.142;2022-10-26T09:22:03;5.30;;;4.87;;
9328;SDS011;4703;48.748;19.142;2022-10-26T09:24:53;5.07;;;4.60;;
9328;SDS011;4703;48.748;19.142;2022-10-26T09:27:28;5.03;;;4.53;;
9328;SDS011;4703;48.748;19.142;2022-10-26T09:29:59;4.77;;;4.37;;
9328;SDS011;4703;48.748;19.142;2022-10-26T09:32:44;4.70;;;4.30;;
9328;SDS011;4703;48.748;19.142;2022-10-26T09:35:16;4.90;;;4.50;;
9328;SDS011;4703;48.748;19.142;2022-10-26T09:37:52;4.47;;;3.73;;
9328;SDS011;4703;48.748;19.142;2022-10-26T09:43:32;4.10;;;3.80;;
9328;SDS011;4703;48.748;19.142;2022-10-26T09:46:20;6.37;;;3.57;;
9328;SDS011;4703;48.748;19.142;2022-10-26T09:49:06;4.00;;;3.70;;
9328;SDS011;4703;48.748;19.142;2022-10-26T09:51:38;3.87;;;3.57;;
9328;SDS011;4703;48.748;19.142;2022-10-26T09:54:14;4.43;;;3.60;;
9328;SDS011;4703;48.748;19.142;2022-10-26T09:56:45;4.07;;;3.20;;
9328;SDS011;4703;48.748;19.142;2022-10-26T09:59:19;4.53;;;4.10;;
9328;SDS011;4703;48.748;19.142;2022-10-26T10:01:53;4.20;;;3.50;;
9328;SDS011;4703;48.748;19.142;2022-10-26T10:04:21;5.47;;;4.07;;
9328;SDS011;4703;48.748;19.142;2022-10-26T10:09:27;5.17;;;4.77;;
9328;SDS011;4703;48.748;19.142;2022-10-26T10:11:58;8.00;;;6.60;;
9328;SDS011;4703;48.748;19.142;2022-10-26T10:14:32;7.77;;;7.00;;
9328;SDS011;4703;48.748;19.142;2022-10-26T10:17:16;7.50;;;6.87;;
9328;SDS011;4703;48.748;19.142;2022-10-26T10:19:46;8.30;;;7.60;;
9328;SDS011;4703;48.748;19.142;2022-10-26T10:24:41;9.00;;;8.27;;
9328;SDS011;4703;48.748;19.142;2022-10-26T10:27:19;6.70;;;6.00;;
9328;SDS011;4703;48.748;19.142;2022-10-26T10:29:47;6.90;;;6.30;;
9328;SDS011;4703;48.748;19.142;2022-10-26T10:32:27;8.27;;;7.60;;
9328;SDS011;4703;48.748;19.142;2022-10-26T10:35:04;7.83;;;7.13;;
9328;SDS011;4703;48.748;19.142;2022-10-26T10:37:49;7.07;;;6.47;;
9328;SDS011;4703;48.748;19.142;2022-10-26T10:40:21;10.77;;;6.90;;
9328;SDS011;4703;48.748;19.142;2022-10-26T10:43:14;6.03;;;5.57;;
9328;SDS011;4703;48.748;19.142;2022-10-26T10:45:41;7.20;;;6.50;;
9328;SDS011;4703;48.748;19.142;2022-10-26T10:48:15;6.80;;;6.20;;
9328;SDS011;4703;48.748;19.142;2022-10-26T10:51:00;7.00;;;6.37;;
9328;SDS011;4703;48.748;19.142;2022-10-26T11:02:38;6.87;;;6.20;;
9328;SDS011;4703;48.748;19.142;2022-10-26T11:08:08;5.40;;;5.00;;
9328;SDS011;4703;48.748;19.142;2022-10-26T11:10:52;5.70;;;5.20;;
9328;SDS011;4703;48.748;19.142;2022-10-26T11:14:01;6.93;;;6.40;;
9328;SDS011;4703;48.748;19.142;2022-10-26T11:19:28;5.93;;;5.53;;
9328;SDS011;4703;48.748;19.142;2022-10-26T11:23:18;6.40;;;5.90;;
9328;SDS011;4703;48.748;19.142;2022-10-26T11:25:20;6.57;;;5.93;;
9328;SDS011;4703;48.748;19.142;2022-10-26T11:28:10;7.70;;;6.90;;
9328;SDS011;4703;48.748;19.142;2022-10-26T11:30:51;8.40;;;6.93;;
9328;SDS011;4703;48.748;19.142;2022-10-26T11:33:29;10.93;;;9.67;;
9328;SDS011;4703;48.748;19.142;2022-10-26T11:36:08;8.77;;;7.97;;
9328;SDS011;4703;48.748;19.142;2022-10-26T11:39:00;9.67;;;8.70;;
9328;SDS011;4703;48.748;19.142;2022-10-26T11:41:59;6.00;;;5.50;;
9328;SDS011;4703;48.748;19.142;2022-10-26T11:44:34;8.00;;;5.87;;
9328;SDS011;4703;48.748;19.142;2022-10-26T11:47:56;4.53;;;4.23;;
9328;SDS011;4703;48.748;19.142;2022-10-26T11:50:43;4.40;;;4.10;;
9328;SDS011;4703;48.748;19.142;2022-10-26T11:53:29;5.60;;;5.00;;
9328;SDS011;4703;48.748;19.142;2022-10-26T11:56:12;5.20;;;4.70;;
9328;SDS011;4703;48.748;19.142;2022-10-26T11:59:18;5.27;;;4.87;;
9328;SDS011;4703;48.748;19.142;2022-10-26T12:01:49;4.60;;;4.17;;
9328;SDS011;4703;48.748;19.142;2022-10-26T12:04:19;4.90;;;4.50;;
9328;SDS011;4703;48.748;19.142;2022-10-26T12:06:50;4.77;;;4.37;;
9328;SDS011;4703;48.748;19.142;2022-10-26T12:09:31;4.53;;;4.17;;
9328;SDS011;4703;48.748;19.142;2022-10-26T12:12:05;4.43;;;4.03;;
9328;SDS011;4703;48.748;19.142;2022-10-26T12:17:25;4.07;;;3.77;;
9328;SDS011;4703;48.748;19.142;2022-10-26T12:23:04;4.57;;;4.17;;
9328;SDS011;4703;48.748;19.142;2022-10-26T12:25:38;5.10;;;4.13;;
9328;SDS011;4703;48.748;19.142;2022-10-26T12:28:14;4.30;;;3.90;;
9328;SDS011;4703;48.748;19.142;2022-10-26T12:33:58;5.10;;;4.20;;
9328;SDS011;4703;48.748;19.142;2022-10-26T12:39:40;5.07;;;4.67;;
9328;SDS011;4703;48.748;19.142;2022-10-26T12:52:42;8.33;;;5.17;;
9328;SDS011;4703;48.748;19.142;2022-10-26T12:55:29;4.73;;;4.23;;
9328;SDS011;4703;48.748;19.142;2022-10-26T12:58:34;4.87;;;4.47;;
9328;SDS011;4703;48.748;19.142;2022-10-26T13:04:20;4.90;;;4.50;;
9328;SDS011;4703;48.748;19.142;2022-10-26T13:09:58;5.40;;;4.90;;
9328;SDS011;4703;48.748;19.142;2022-10-26T13:15:26;5.17;;;4.77;;
9328;SDS011;4703;48.748;19.142;2022-10-26T13:18:17;5.43;;;5.03;;
9328;SDS011;4703;48.748;19.142;2022-10-26T13:21:06;6.10;;;4.80;;
9328;SDS011;4703;48.748;19.142;2022-10-26T13:23:37;5.97;;;5.33;;
9328;SDS011;4703;48.748;19.142;2022-10-26T13:26:08;5.53;;;5.00;;
9328;SDS011;4703;48.748;19.142;2022-10-26T13:29:00;5.33;;;4.83;;
9328;SDS011;4703;48.748;19.142;2022-10-26T13:34:19;4.90;;;4.50;;
9328;SDS011;4703;48.748;19.142;2022-10-26T13:39:41;5.90;;;5.30;;
9328;SDS011;4703;48.748;19.142;2022-10-26T13:42:15;6.63;;;6.03;;
9328;SDS011;4703;48.748;19.142;2022-10-26T13:44:58;7.37;;;5.70;;
9328;SDS011;4703;48.748;19.142;2022-10-26T13:50:32;5.40;;;4.00;;
9328;SDS011;4703;48.748;19.142;2022-10-26T13:53:06;5.43;;;4.93;;
9328;SDS011;4703;48.748;19.142;2022-10-26T13:55:52;4.63;;;4.10;;
9328;SDS011;4703;48.748;19.142;2022-10-26T14:03:36;6.03;;;4.37;;
9328;SDS011;4703;48.748;19.142;2022-10-26T14:08:55;5.80;;;5.33;;
9328;SDS011;4703;48.748;19.142;2022-10-26T14:12:14;6.37;;;4.87;;
9328;SDS011;4703;48.748;19.142;2022-10-26T14:14:33;5.00;;;4.60;;
9328;SDS011;4703;48.748;19.142;2022-10-26T14:17:02;4.27;;;3.87;;
9328;SDS011;4703;48.748;19.142;2022-10-26T14:19:34;4.50;;;3.80;;
9328;SDS011;4703;48.748;19.142;2022-10-26T14:22:03;6.73;;;4.10;;
9328;SDS011;4703;48.748;19.142;2022-10-26T14:24:31;5.07;;;4.67;;
9328;SDS011;4703;48.748;19.142;2022-10-26T14:27:20;5.00;;;4.60;;
9328;SDS011;4703;48.748;19.142;2022-10-26T14:29:53;5.13;;;4.03;;
9328;SDS011;4703;48.748;19.142;2022-10-26T14:32:41;4.90;;;4.40;;
9328;SDS011;4703;48.748;19.142;2022-10-26T14:35:11;4.20;;;3.87;;
9328;SDS011;4703;48.748;19.142;2022-10-26T14:37:44;5.70;;;5.13;;
9328;SDS011;4703;48.748;19.142;2022-10-26T14:40:19;4.90;;;4.50;;
9328;SDS011;4703;48.748;19.142;2022-10-26T14:42:53;6.53;;;4.57;;
9328;SDS011;4703;48.748;19.142;2022-10-26T14:45:26;5.63;;;4.50;;
9328;SDS011;4703;48.748;19.142;2022-10-26T14:51:18;5.00;;;4.60;;
9328;SDS011;4703;48.748;19.142;2022-10-26T14:53:51;5.70;;;5.20;;
9328;SDS011;4703;48.748;19.142;2022-10-26T14:56:24;8.33;;;5.93;;
9328;SDS011;4703;48.748;19.142;2022-10-26T14:58:57;5.83;;;5.13;;
9328;SDS011;4703;48.748;19.142;2022-10-26T15:01:25;9.37;;;8.30;;
9328;SDS011;4703;48.748;19.142;2022-10-26T15:04:06;7.50;;;6.80;;
9328;SDS011;4703;48.748;19.142;2022-10-26T15:06:51;7.27;;;5.93;;
9328;SDS011;4703;48.748;19.142;2022-10-26T15:09:32;6.03;;;5.47;;
9328;SDS011;4703;48.748;19.142;2022-10-26T15:12:18;5.90;;;5.33;;
9328;SDS011;4703;48.748;19.142;2022-10-26T15:14:59;6.33;;;5.83;;
9328;SDS011;4703;48.748;19.142;2022-10-26T15:18:04;7.17;;;6.57;;
9328;SDS011;4703;48.748;19.142;2022-10-26T15:20:30;7.10;;;6.00;;
9328;SDS011;4703;48.748;19.142;2022-10-26T15:22:58;6.53;;;5.97;;
9328;SDS011;4703;48.748;19.142;2022-10-26T15:25:27;6.47;;;5.87;;
9328;SDS011;4703;48.748;19.142;2022-10-26T15:28:19;6.47;;;5.87;;
9328;SDS011;4703;48.748;19.142;2022-10-26T15:33:40;6.40;;;5.90;;
9328;SDS011;4703;48.748;19.142;2022-10-26T15:36:17;8.03;;;7.27;;
9328;SDS011;4703;48.748;19.142;2022-10-26T15:38:47;7.33;;;6.43;;
9328;SDS011;4703;48.748;19.142;2022-10-26T15:43:57;8.90;;;8.07;;
9328;SDS011;4703;48.748;19.142;2022-10-26T15:46:30;12.87;;;9.17;;
9328;SDS011;4703;48.748;19.142;2022-10-26T15:49:00;9.80;;;8.80;;
9328;SDS011;4703;48.748;19.142;2022-10-26T15:51:29;9.97;;;8.97;;
9328;SDS011;4703;48.748;19.142;2022-10-26T15:53:57;11.40;;;8.93;;
9328;SDS011;4703;48.748;19.142;2022-10-26T15:56:27;10.40;;;9.43;;
9328;SDS011;4703;48.748;19.142;2022-10-26T15:58:55;10.80;;;9.13;;
9328;SDS011;4703;48.748;19.142;2022-10-26T16:01:27;10.60;;;9.50;;
9328;SDS011;4703;48.748;19.142;2022-10-26T16:03:54;11.20;;;10.10;;
9328;SDS011;4703;48.748;19.142;2022-10-26T16:08:52;10.27;;;9.13;;
9328;SDS011;4703;48.748;19.142;2022-10-26T16:11:23;12.07;;;9.37;;
9328;SDS011;4703;48.748;19.142;2022-10-26T16:13:50;11.43;;;9.30;;
9328;SDS011;4703;48.748;19.142;2022-10-26T16:16:17;11.73;;;10.63;;
9328;SDS011;4703;48.748;19.142;2022-10-26T16:18:46;12.90;;;10.10;;
9328;SDS011;4703;48.748;19.142;2022-10-26T16:21:31;11.73;;;10.53;;
9328;SDS011;4703;48.748;19.142;2022-10-26T16:23:58;11.67;;;10.47;;
9328;SDS011;4703;48.748;19.142;2022-10-26T16:26:25;12.87;;;11.53;;
9328;SDS011;4703;48.748;19.142;2022-10-26T16:28:52;15.73;;;14.03;;
9328;SDS011;4703;48.748;19.142;2022-10-26T16:31:19;16.33;;;14.83;;
9328;SDS011;4703;48.748;19.142;2022-10-26T16:33:47;17.17;;;15.37;;
9328;SDS011;4703;48.748;19.142;2022-10-26T16:36:14;14.57;;;13.03;;
9328;SDS011;4703;48.748;19.142;2022-10-26T16:38:41;14.90;;;13.07;;
9328;SDS011;4703;48.748;19.142;2022-10-26T16:41:09;13.17;;;11.77;;
9328;SDS011;4703;48.748;19.142;2022-10-26T16:43:39;12.43;;;11.00;;
9328;SDS011;4703;48.748;19.142;2022-10-26T16:46:09;12.07;;;10.90;;
9328;SDS011;4703;48.748;19.142;2022-10-26T16:48:39;13.00;;;11.40;;
9328;SDS011;4703;48.748;19.142;2022-10-26T16:51:09;12.83;;;11.53;;
9328;SDS011;4703;48.748;19.142;2022-10-26T16:53:39;12.07;;;10.77;;
9328;SDS011;4703;48.748;19.142;2022-10-26T16:56:10;14.53;;;12.60;;
9328;SDS011;4703;48.748;19.142;2022-10-26T16:58:40;11.07;;;10.00;;
9328;SDS011;4703;48.748;19.142;2022-10-26T17:01:07;12.17;;;11.00;;
9328;SDS011;4703;48.748;19.142;2022-10-26T17:03:36;11.60;;;10.50;;
9328;SDS011;4703;48.748;19.142;2022-10-26T17:06:03;11.50;;;9.83;;
9328;SDS011;4703;48.748;19.142;2022-10-26T17:08:33;11.07;;;9.97;;
9328;SDS011;4703;48.748;19.142;2022-10-26T17:11:02;11.00;;;10.00;;
9328;SDS011;4703;48.748;19.142;2022-10-26T17:13:32;12.03;;;10.73;;
9328;SDS011;4703;48.748;19.142;2022-10-26T17:16:11;11.80;;;10.60;;
9328;SDS011;4703;48.748;19.142;2022-10-26T17:18:41;12.53;;;11.33;;
9328;SDS011;4703;48.748;19.142;2022-10-26T17:21:09;25.33;;;12.87;;
9328;SDS011;4703;48.748;19.142;2022-10-26T17:23:37;13.40;;;12.00;;
9328;SDS011;4703;48.748;19.142;2022-10-26T17:26:05;13.40;;;11.73;;
9328;SDS011;4703;48.748;19.142;2022-10-26T17:28:35;12.27;;;11.00;;
9328;SDS011;4703;48.748;19.142;2022-10-26T17:31:06;11.57;;;10.50;;
9328;SDS011;4703;48.748;19.142;2022-10-26T17:33:37;9.97;;;9.03;;
9328;SDS011;4703;48.748;19.142;2022-10-26T17:36:07;11.00;;;10.00;;
9328;SDS011;4703;48.748;19.142;2022-10-26T17:38:37;12.03;;;9.90;;
9328;SDS011;4703;48.748;19.142;2022-10-26T17:41:10;12.97;;;10.90;;
9328;SDS011;4703;48.748;19.142;2022-10-26T17:43:39;11.13;;;10.13;;
9328;SDS011;4703;48.748;19.142;2022-10-26T17:46:12;11.03;;;9.60;;
9328;SDS011;4703;48.748;19.142;2022-10-26T17:48:52;15.70;;;12.40;;
9328;SDS011;4703;48.748;19.142;2022-10-26T17:51:24;12.50;;;11.20;;
9328;SDS011;4703;48.748;19.142;2022-10-26T17:53:54;11.70;;;10.60;;
9328;SDS011;4703;48.748;19.142;2022-10-26T17:56:23;11.47;;;10.37;;